createdAt,value
2023-04-27T00:03:49.620Z,100175.72
2023-04-27T00:08:51.934Z,100156.22
2023-04-27T00:13:54.153Z,100168.03
2023-04-27T00:18:56.261Z,100141.75
2023-04-27T00:23:58.593Z,100150.06
2023-04-27T00:29:00.719Z,100157.09
2023-04-27T00:34:02.879Z,100139.91
2023-04-27T00:39:06.673Z,100150.88
2023-04-27T00:44:08.869Z,100169.69
2023-04-27T00:49:11.302Z,100155.44
2023-04-27T00:54:16.215Z,100161.44
2023-04-27T00:59:19.996Z,100181.91
2023-04-27T01:04:22.707Z,100151.91
2023-04-27T01:09:24.969Z,100170.31
2023-04-27T01:14:27.094Z,100149.22
2023-04-27T01:19:29.283Z,100179.22
2023-04-27T01:24:31.518Z,100188.53
2023-04-27T01:29:33.618Z,100174.88
2023-04-27T01:34:35.909Z,100173.00
2023-04-27T01:39:38.876Z,100177.38
2023-04-27T01:44:41.513Z,100166.81
2023-04-27T01:49:44.643Z,100179.81
2023-04-27T01:54:46.802Z,100178.38
2023-04-27T01:59:48.963Z,100187.09
2023-04-27T02:04:51.271Z,100184.19
2023-04-27T02:09:53.622Z,100166.59
2023-04-27T02:14:55.965Z,100168.03
2023-04-27T02:19:58.274Z,100189.97
2023-04-27T02:25:00.902Z,100196.13
2023-04-27T02:30:06.276Z,100178.94
2023-04-27T02:35:09.976Z,100183.66
2023-04-27T02:40:13.152Z,100186.94
2023-04-27T02:45:15.376Z,100180.72
2023-04-27T02:50:17.778Z,100212.13
2023-04-27T02:55:21.788Z,100193.09
2023-04-27T03:00:24.336Z,100198.50
2023-04-27T03:05:28.720Z,100211.75
2023-04-27T03:10:30.952Z,100225.63
2023-04-27T03:15:33.153Z,100214.56
2023-04-27T03:20:35.463Z,100193.25
2023-04-27T03:25:37.692Z,100191.41
2023-04-27T03:30:41.630Z,100231.81
2023-04-27T03:35:43.832Z,100213.16
2023-04-27T03:40:46.032Z,100212.53
2023-04-27T03:45:48.724Z,100246.31
2023-04-27T03:50:51.277Z,100253.31
2023-04-27T03:55:53.484Z,100249.69
2023-04-27T04:00:57.703Z,100242.03
2023-04-27T04:05:59.934Z,100258.44
2023-04-27T04:11:02.165Z,100265.19
2023-04-27T04:16:09.222Z,100287.44
2023-04-27T04:21:11.719Z,100286.00
2023-04-27T04:26:15.377Z,100274.38
2023-04-27T04:31:18.638Z,100273.97
2023-04-27T04:36:20.937Z,100296.44
2023-04-27T04:41:24.203Z,100311.25
2023-04-27T04:46:26.466Z,100288.72
2023-04-27T04:51:28.655Z,100296.72
2023-04-27T04:56:30.982Z,100306.34
2023-04-27T05:01:33.296Z,100323.53
2023-04-27T05:06:35.536Z,100322.72
2023-04-27T05:11:37.757Z,100318.16
2023-04-27T05:16:40.142Z,100339.56
2023-04-27T05:21:42.515Z,100331.78
2023-04-27T05:26:44.760Z,100326.84
2023-04-27T05:31:47.086Z,100344.69
2023-04-27T05:36:49.384Z,100331.84
2023-04-27T05:41:51.871Z,100337.25
2023-04-27T05:46:54.032Z,100368.56
2023-04-27T05:51:56.408Z,100376.44
2023-04-27T05:56:58.547Z,100361.09
2023-04-27T06:02:00.849Z,100342.22
2023-04-27T06:07:08.434Z,100356.34
2023-04-27T06:12:10.656Z,100368.97
2023-04-27T06:17:12.900Z,100350.72
2023-04-27T06:22:15.064Z,100345.69
2023-04-27T06:27:17.286Z,100377.31
2023-04-27T06:32:19.861Z,100364.66
2023-04-27T06:37:22.364Z,100361.28
2023-04-27T06:42:24.720Z,100380.72
2023-04-27T06:47:26.890Z,100381.06
2023-04-27T06:52:29.047Z,100377.00
2023-04-27T06:57:31.521Z,100385.22
2023-04-27T07:02:33.961Z,100381.00
2023-04-27T07:07:36.535Z,100382.16
2023-04-27T07:12:39.250Z,100387.41
2023-04-27T07:17:42.024Z,100378.41
2023-04-27T07:22:45.251Z,100397.75
2023-04-27T07:27:47.574Z,100395.47
2023-04-27T07:32:54.936Z,100363.19
2023-04-27T07:37:57.251Z,100382.91
2023-04-27T07:43:00.206Z,100373.38
2023-04-27T07:48:02.729Z,100381.34
2023-04-27T07:53:05.022Z,100402.09
2023-04-27T07:58:07.465Z,100378.41
2023-04-27T08:03:09.983Z,100372.28
2023-04-27T08:08:12.742Z,100414.72
2023-04-27T08:13:14.964Z,100411.50
2023-04-27T08:18:18.255Z,100407.66
2023-04-27T08:23:20.550Z,100403.38
2023-04-27T08:28:23.784Z,100403.00
2023-04-27T08:33:25.995Z,100394.25
2023-04-27T08:38:28.094Z,100401.38
2023-04-27T08:43:36.919Z,100380.13
2023-04-27T08:48:39.016Z,100402.19
2023-04-27T08:53:49.621Z,100386.47
2023-04-27T08:58:56.038Z,100414.94
2023-04-27T09:04:02.660Z,100404.63
2023-04-27T09:09:05.257Z,100406.19
2023-04-27T09:14:19.343Z,100394.91
2023-04-27T09:19:25.820Z,100387.56
2023-04-27T09:24:29.357Z,100402.03
2023-04-27T09:29:36.698Z,100410.50
2023-04-27T09:34:40.484Z,100398.56
2023-04-27T09:39:43.474Z,100372.91
2023-04-27T09:44:46.286Z,100365.19
2023-04-27T09:49:51.280Z,100397.44
2023-04-27T09:54:58.541Z,100381.13
2023-04-27T10:00:50.303Z,100391.28
2023-04-27T10:06:27.284Z,100381.47
2023-04-27T10:11:44.719Z,100376.47
2023-04-27T10:16:51.410Z,100380.75
2023-04-27T10:22:03.668Z,100378.56
2023-04-27T10:27:08.218Z,100360.25
2023-04-27T10:32:13.576Z,100365.09
2023-04-27T10:37:16.678Z,100358.91
2023-04-27T10:42:29.150Z,100357.19
2023-04-27T10:47:42.292Z,100337.91
2023-04-27T10:52:44.979Z,100351.19
2023-04-27T10:57:51.991Z,100329.31
2023-04-27T11:02:55.861Z,100330.66
2023-04-27T11:08:19.277Z,100328.41
2023-04-27T11:13:24.083Z,100326.66
2023-04-27T11:18:30.135Z,100311.47
2023-04-27T11:23:39.992Z,100326.81
2023-04-27T11:28:44.169Z,100311.34
2023-04-27T11:33:50.483Z,100293.59
2023-04-27T11:38:58.398Z,100292.00
2023-04-27T11:44:10.805Z,100310.44
2023-04-27T11:49:13.361Z,100298.91
2023-04-27T11:54:16.578Z,100307.63
2023-04-27T11:59:27.992Z,100299.84
2023-04-27T12:04:31.448Z,100294.38
2023-04-27T12:09:34.329Z,100290.88
2023-04-27T12:14:37.420Z,100291.63
2023-04-27T12:19:39.653Z,100279.53
2023-04-27T12:24:43.028Z,100280.97
2023-04-27T12:29:45.266Z,100262.63
2023-04-27T12:34:47.924Z,100265.50
2023-04-27T12:39:50.418Z,100256.75
2023-04-27T12:44:52.881Z,100251.28
2023-04-27T12:49:55.252Z,100256.38
2023-04-27T12:54:59.664Z,100277.78
2023-04-27T13:00:02.449Z,100262.06
2023-04-27T13:05:06.589Z,100254.69
2023-04-27T13:10:09.233Z,100248.22
2023-04-27T13:15:11.738Z,100244.56
2023-04-27T13:20:14.001Z,100232.72
2023-04-27T13:25:17.279Z,100228.38
2023-04-27T13:30:19.509Z,100229.75
2023-04-27T13:35:21.840Z,100236.03
2023-04-27T13:40:24.114Z,100242.00
2023-04-27T13:45:26.402Z,100221.09
2023-04-27T13:50:28.756Z,100248.78
2023-04-27T13:55:31.213Z,100221.22
2023-04-27T14:00:37.116Z,100244.66
2023-04-27T14:05:39.319Z,100226.94
2023-04-27T14:10:42.192Z,100254.25
2023-04-27T14:15:44.426Z,100258.75
2023-04-27T14:20:46.924Z,100242.38
2023-04-27T14:25:49.087Z,100225.91
2023-04-27T14:30:52.104Z,100250.75
2023-04-27T14:35:54.831Z,100247.22
2023-04-27T14:40:57.224Z,100251.38
2023-04-27T14:46:05.118Z,100255.53
2023-04-27T14:51:23.408Z,100244.28
2023-04-27T14:56:25.840Z,100248.72
2023-04-27T15:01:28.162Z,100270.59
2023-04-27T15:06:30.855Z,100269.41
2023-04-27T15:11:33.326Z,100249.25
2023-04-27T15:16:35.936Z,100261.41
2023-04-27T15:21:38.396Z,100264.53
2023-04-27T15:26:41.578Z,100275.16
2023-04-27T15:31:44.003Z,100281.38
2023-04-27T15:36:46.914Z,100284.31
2023-04-27T15:41:49.494Z,100281.44
2023-04-27T15:46:51.787Z,100291.88
2023-04-27T15:51:55.706Z,100284.38
2023-04-27T15:57:01.486Z,100297.09
2023-04-27T16:02:04.252Z,100293.91
2023-04-27T16:07:09.849Z,100305.34
2023-04-27T16:12:12.124Z,100304.63
2023-04-27T16:17:14.860Z,100310.19
2023-04-27T16:22:17.568Z,100317.50
2023-04-27T16:27:21.264Z,100322.34
2023-04-27T16:32:23.802Z,100351.66
2023-04-27T16:37:26.044Z,100329.63
2023-04-27T16:42:28.268Z,100359.38
2023-04-27T16:47:31.842Z,100339.72
2023-04-27T16:52:34.108Z,100380.91
2023-04-27T16:57:36.642Z,100367.44
2023-04-27T17:02:40.503Z,100381.66
2023-04-27T17:07:44.553Z,100378.25
2023-04-27T17:12:46.844Z,100386.22
2023-04-27T17:17:49.133Z,100417.50
2023-04-27T17:22:51.358Z,100425.53
2023-04-27T17:27:53.595Z,100417.78
2023-04-27T17:32:55.990Z,100432.00
2023-04-27T17:37:58.348Z,100442.84
2023-04-27T17:43:00.588Z,100447.66
2023-04-27T17:48:03.305Z,100466.72
2023-04-27T17:53:05.674Z,100454.47
2023-04-27T17:58:08.047Z,100482.69
2023-04-27T18:03:11.818Z,100456.41
2023-04-27T18:08:14.117Z,100494.16
2023-04-27T18:13:16.805Z,100503.59
2023-04-27T18:18:23.237Z,100510.66
2023-04-27T18:23:27.460Z,100550.56
2023-04-27T18:28:29.777Z,100530.03
2023-04-27T18:33:32.000Z,100525.59
2023-04-27T18:38:34.296Z,100515.56
2023-04-27T18:43:39.798Z,100566.69
2023-04-27T18:48:42.337Z,100573.16
2023-04-27T18:53:44.480Z,100564.44
2023-04-27T18:58:48.842Z,100572.28
2023-04-27T19:03:51.873Z,100589.66
2023-04-27T19:08:54.313Z,100593.19
2023-04-27T19:13:57.402Z,100610.34
2023-04-27T19:18:59.633Z,100603.03
2023-04-27T19:24:02.015Z,100616.41
2023-04-27T19:29:04.377Z,100608.56
2023-04-27T19:34:06.677Z,100624.44
2023-04-27T19:39:09.020Z,100642.56
2023-04-27T19:44:11.507Z,100638.06
2023-04-27T19:49:14.469Z,100659.28
2023-04-27T19:54:17.365Z,100639.59
2023-04-27T19:59:19.829Z,100665.66
2023-04-27T20:04:22.457Z,100661.56
2023-04-27T20:09:25.047Z,100669.97
2023-04-27T20:14:29.525Z,100672.94
2023-04-27T20:19:32.624Z,100647.84
2023-04-27T20:24:35.897Z,100693.16
2023-04-27T20:29:38.503Z,100689.47
2023-04-27T20:34:40.780Z,100688.03
2023-04-27T20:39:43.564Z,100708.00
2023-04-27T20:44:48.872Z,100712.97
2023-04-27T20:49:51.701Z,100688.88
2023-04-27T20:54:54.227Z,100718.38
2023-04-27T20:59:56.503Z,100705.09
2023-04-27T21:04:58.794Z,100695.13
2023-04-27T21:10:06.351Z,100695.13
2023-04-27T21:15:09.214Z,100711.34
2023-04-27T21:20:11.941Z,100721.25
2023-04-27T21:25:14.368Z,100725.59
2023-04-27T21:30:16.895Z,100733.50
2023-04-27T21:35:19.093Z,100716.25
2023-04-27T21:40:21.545Z,100731.19
2023-04-27T21:45:24.233Z,100758.63
2023-04-27T21:50:26.363Z,100750.41
2023-04-27T21:55:28.562Z,100754.28
2023-04-27T22:00:30.731Z,100764.09
2023-04-27T22:05:33.839Z,100777.75
2023-04-27T22:10:36.714Z,100785.44
2023-04-27T22:15:42.120Z,100762.53
2023-04-27T22:20:44.485Z,100792.09
2023-04-27T22:25:47.137Z,100775.41
2023-04-27T22:30:49.390Z,100784.16
2023-04-27T22:35:51.773Z,100764.56
2023-04-27T22:40:53.985Z,100779.03
2023-04-27T22:45:56.275Z,100784.81
2023-04-27T22:50:58.458Z,100751.56
2023-04-27T22:56:01.498Z,100773.25
2023-04-27T23:01:04.501Z,100787.34
2023-04-27T23:06:08.008Z,100775.75
2023-04-27T23:11:13.995Z,100774.34
2023-04-27T23:16:16.440Z,100771.56
2023-04-27T23:21:18.929Z,100784.66
2023-04-27T23:26:21.679Z,100778.03
2023-04-27T23:31:24.313Z,100795.53
2023-04-27T23:36:26.893Z,100773.50
2023-04-27T23:41:29.134Z,100785.84
2023-04-27T23:46:31.396Z,100742.41
2023-04-27T23:51:34.007Z,100759.69
2023-04-27T23:56:37.027Z,100786.34
